Time;durP1;ratioP1;P1;durP2;ratioP2;P2;SDS_P1;SDS_P2;PMS_P1;PMS_P2;Temp;Humidity;BMP_temperature;BMP_pressure;BME280_temperature;BME280_humidity;BME280_pressure;Samples;Min_cycle;Max_cycle;Signal;HPM_P1;HPM_P2
2021/03/18 00:00:50;;;;;;;6.40;5.80;;;4.00;99.90;;;;;;5053863;28;20487;-65
2021/03/18 00:03:21;;;;;;;7.43;5.83;;;4.10;99.90;;;;;;5053790;28;20455;-64
2021/03/18 00:05:47;;;;;;;7.90;5.57;;;3.90;99.90;;;;;;5054190;28;20429;-64
2021/03/18 00:08:14;;;;;;;6.73;6.13;;;3.80;99.90;;;;;;5053635;28;20412;-64
2021/03/18 00:10:39;;;;;;;6.90;6.20;;;3.80;99.90;;;;;;5053693;28;20774;-67
2021/03/18 00:13:07;;;;;;;6.50;5.90;;;3.80;99.90;;;;;;5072513;28;20430;-65
2021/03/18 00:15:35;;;;;;;5.77;5.17;;;3.80;99.90;;;;;;5073331;28;20202;-64
2021/03/18 00:18:00;;;;;;;6.30;5.70;;;4.00;99.90;;;;;;5084329;28;20408;-64
2021/03/18 00:20:26;;;;;;;6.03;5.37;;;4.00;99.90;;;;;;5093815;28;20455;-64
2021/03/18 00:22:52;;;;;;;5.77;5.27;;;4.10;99.90;;;;;;5093905;28;20183;-64
2021/03/18 00:25:18;;;;;;;10.53;5.67;;;4.00;99.90;;;;;;5089787;28;20423;-65
2021/03/18 00:27:45;;;;;;;6.80;6.03;;;4.00;99.90;;;;;;5066927;28;20300;-64
2021/03/18 00:30:13;;;;;;;6.47;5.87;;;4.00;99.90;;;;;;5053269;28;20451;-65
2021/03/18 00:32:39;;;;;;;6.13;5.53;;;4.00;99.90;;;;;;5053522;28;20401;-64
2021/03/18 00:35:11;;;;;;;6.70;6.00;;;3.90;99.90;;;;;;5053584;28;20800;-65
2021/03/18 00:37:41;;;;;;;5.87;5.27;;;3.90;99.90;;;;;;5053326;28;20455;-64
2021/03/18 00:40:10;;;;;;;6.80;6.20;;;3.90;99.90;;;;;;5053603;28;20434;-64
2021/03/18 00:42:47;;;;;;;7.43;5.87;;;3.90;99.90;;;;;;5053294;28;20409;-64
2021/03/18 00:45:13;;;;;;;9.30;5.50;;;4.00;99.90;;;;;;5064582;28;20585;-63
2021/03/18 00:47:38;;;;;;;8.23;7.23;;;4.10;99.90;;;;;;5064537;28;20511;-64
2021/03/18 00:50:05;;;;;;;7.60;6.20;;;4.10;99.90;;;;;;5074467;28;20423;-64
2021/03/18 00:52:30;;;;;;;6.13;5.30;;;4.20;99.90;;;;;;5072736;28;20169;-65
2021/03/18 00:54:56;;;;;;;5.97;5.37;;;4.30;99.90;;;;;;5093289;28;20518;-64
2021/03/18 00:57:23;;;;;;;6.20;5.60;;;4.30;99.90;;;;;;5093665;28;20166;-64
2021/03/18 00:59:48;;;;;;;7.90;6.57;;;4.30;99.90;;;;;;5093373;28;20165;-64
2021/03/18 01:02:15;;;;;;;6.30;5.67;;;4.10;99.90;;;;;;5078067;28;20948;-63
2021/03/18 01:04:43;;;;;;;7.30;6.40;;;4.30;99.90;;;;;;5076603;28;20197;-64
2021/03/18 01:07:09;;;;;;;7.90;7.03;;;4.20;99.90;;;;;;5056072;28;20941;-64
2021/03/18 01:09:34;;;;;;;7.13;6.43;;;4.30;99.90;;;;;;5076345;28;20486;-64
2021/03/18 01:12:00;;;;;;;7.63;5.73;;;4.30;99.90;;;;;;5093555;28;20579;-64
2021/03/18 01:14:25;;;;;;;7.90;6.47;;;4.30;99.90;;;;;;5088194;28;20201;-64
2021/03/18 01:16:52;;;;;;;7.37;5.80;;;4.30;99.90;;;;;;5072747;28;20177;-64
2021/03/18 01:19:22;;;;;;;5.77;5.27;;;4.40;99.90;;;;;;5074545;28;20166;-64
2021/03/18 01:21:52;;;;;;;7.10;6.37;;;4.40;99.90;;;;;;5080818;28;20431;-64
2021/03/18 01:24:18;;;;;;;7.43;6.60;;;4.50;99.90;;;;;;5097506;28;20424;-64
2021/03/18 01:26:44;;;;;;;6.90;6.20;;;4.50;99.90;;;;;;5079155;28;20410;-64
2021/03/18 01:29:11;;;;;;;9.47;6.07;;;4.50;99.90;;;;;;5097193;28;20166;-63
2021/03/18 01:31:37;;;;;;;7.67;6.60;;;4.40;99.90;;;;;;5097181;28;20771;-64
2021/03/18 01:34:04;;;;;;;7.07;6.47;;;4.40;99.90;;;;;;5080471;28;20436;-64
2021/03/18 01:36:32;;;;;;;7.23;6.10;;;4.50;99.90;;;;;;5070835;28;20429;-64
2021/03/18 01:38:57;;;;;;;6.10;5.50;;;4.40;99.90;;;;;;5077608;28;20423;-63
2021/03/18 01:41:26;;;;;;;8.17;6.23;;;4.30;99.90;;;;;;5078435;28;20448;-64
2021/03/18 01:43:52;;;;;;;7.90;5.37;;;4.40;99.90;;;;;;5096294;28;20574;-65
2021/03/18 01:46:18;;;;;;;6.87;6.27;;;4.40;99.90;;;;;;5076607;28;20449;-64
2021/03/18 01:48:44;;;;;;;7.23;6.30;;;4.40;99.90;;;;;;5076500;28;20171;-64
2021/03/18 01:51:11;;;;;;;7.10;5.60;;;4.20;99.90;;;;;;5076927;28;20416;-64
2021/03/18 01:53:36;;;;;;;7.00;6.20;;;4.10;99.90;;;;;;5078455;28;20825;-65
2021/03/18 01:56:04;;;;;;;6.67;6.07;;;4.10;99.90;;;;;;5096801;28;20494;-64
2021/03/18 01:58:31;;;;;;;7.53;5.80;;;4.10;99.90;;;;;;5097385;28;20298;-64
2021/03/18 02:01:00;;;;;;;6.80;6.20;;;4.10;99.90;;;;;;5096585;28;20439;-63
2021/03/18 02:03:26;;;;;;;6.70;6.00;;;4.20;99.90;;;;;;5096603;28;20414;-64
2021/03/18 02:05:53;;;;;;;6.93;5.70;;;4.20;99.90;;;;;;5097017;28;20408;-63
2021/03/18 02:08:19;;;;;;;7.30;6.20;;;4.20;99.90;;;;;;5097246;28;20898;-63
2021/03/18 02:10:45;;;;;;;10.40;6.00;;;4.10;99.90;;;;;;5096828;28;20407;-63
2021/03/18 02:13:13;;;;;;;7.03;5.90;;;4.10;99.90;;;;;;5096812;28;20407;-63
2021/03/18 02:16:02;;;;;;;6.93;6.13;;;4.10;99.90;;;;;;5080751;28;20428;-63
2021/03/18 02:18:47;;;;;;;7.73;5.60;;;4.20;99.90;;;;;;5067665;28;20422;-63
2021/03/18 02:21:53;;;;;;;5.90;5.30;;;4.20;99.90;;;;;;5076208;28;20436;-63
2021/03/18 02:24:32;;;;;;;6.97;5.33;;;4.30;99.90;;;;;;5026802;28;20467;-64
2021/03/18 02:27:35;;;;;;;7.37;5.53;;;4.30;99.90;;;;;;5076145;28;20376;-64
2021/03/18 02:30:29;;;;;;;6.80;5.70;;;4.20;99.90;;;;;;5076657;28;20384;-64
2021/03/18 02:33:14;;;;;;;6.63;5.97;;;4.20;99.90;;;;;;5078124;28;20417;-64
2021/03/18 02:35:45;;;;;;;7.07;6.37;;;4.20;99.90;;;;;;5095842;28;20411;-64
2021/03/18 02:38:19;;;;;;;5.60;5.10;;;4.20;99.90;;;;;;5078284;28;20380;-64
2021/03/18 02:40:53;;;;;;;5.80;5.30;;;4.30;99.90;;;;;;5095812;28;20438;-64
2021/03/18 02:43:21;;;;;;;6.20;4.97;;;4.30;99.90;;;;;;5095942;28;20821;-64
2021/03/18 02:45:54;;;;;;;6.03;5.43;;;4.30;99.90;;;;;;5117924;22;20487;-61
2021/03/18 02:48:26;;;;;;;8.60;5.23;;;4.10;99.90;;;;;;5095836;28;20384;-61
2021/03/18 02:50:52;;;;;;;7.80;6.37;;;4.20;99.90;;;;;;5092321;28;20487;-59
2021/03/18 02:53:19;;;;;;;6.40;5.80;;;4.10;99.90;;;;;;5077987;28;20423;-53
2021/03/18 02:55:47;;;;;;;6.60;5.50;;;4.10;99.90;;;;;;5074685;28;20837;-54
2021/03/18 02:58:16;;;;;;;5.63;5.13;;;4.20;99.90;;;;;;5084321;28;20412;-53
2021/03/18 03:00:42;;;;;;;5.70;5.10;;;4.30;99.90;;;;;;5095416;28;20451;-54
2021/03/18 03:03:09;;;;;;;7.20;5.60;;;4.30;99.90;;;;;;5095443;28;20439;-56
2021/03/18 03:05:35;;;;;;;7.60;5.60;;;4.30;99.90;;;;;;5095520;28;20430;-53
2021/03/18 03:08:04;;;;;;;7.40;5.73;;;4.30;99.90;;;;;;5095950;28;20400;-53
2021/03/18 03:10:30;;;;;;;7.33;5.40;;;4.00;99.90;;;;;;5085351;28;20498;-55
2021/03/18 03:12:57;;;;;;;5.50;4.87;;;4.00;99.90;;;;;;5075316;28;20405;-53
2021/03/18 03:15:26;;;;;;;6.97;6.30;;;4.10;99.90;;;;;;5086927;28;20450;-53
2021/03/18 03:17:54;;;;;;;5.93;5.33;;;4.20;99.90;;;;;;5095046;28;20408;-54
2021/03/18 03:20:20;;;;;;;8.70;6.07;;;4.20;99.90;;;;;;5095278;28;20403;-53
2021/03/18 03:22:46;;;;;;;7.03;5.67;;;4.20;99.90;;;;;;5095153;28;20404;-54
2021/03/18 03:25:15;;;;;;;6.70;4.70;;;4.30;99.90;;;;;;5095233;28;20819;-55
2021/03/18 03:27:46;;;;;;;5.37;4.87;;;4.30;99.90;;;;;;5095114;28;20494;-53
2021/03/18 03:30:14;;;;;;;5.60;4.80;;;4.20;99.90;;;;;;5095129;28;20384;-54
2021/03/18 03:32:41;;;;;;;5.50;4.97;;;4.30;99.90;;;;;;5094791;28;20399;-54
2021/03/18 03:35:08;;;;;;;5.60;4.87;;;4.40;99.90;;;;;;5094831;28;20431;-53
2021/03/18 03:37:34;;;;;;;5.07;4.67;;;4.40;99.90;;;;;;5076720;28;20511;-53
2021/03/18 03:40:00;;;;;;;4.60;4.20;;;4.40;99.90;;;;;;5095108;28;20403;-54
2021/03/18 03:42:26;;;;;;;5.10;4.60;;;4.40;99.90;;;;;;5058020;28;20811;-56
2021/03/18 03:44:52;;;;;;;4.73;4.33;;;4.50;99.90;;;;;;5061724;28;20444;-54
2021/03/18 03:47:17;;;;;;;5.70;5.20;;;4.50;99.90;;;;;;5086670;28;20158;-53
2021/03/18 03:49:44;;;;;;;8.33;4.77;;;4.60;99.90;;;;;;5094579;28;20165;-53
2021/03/18 03:52:25;;;;;;;5.70;5.13;;;4.60;99.90;;;;;;5094851;28;20184;-59
2021/03/18 03:55:02;;;;;;;6.77;4.43;;;4.50;99.90;;;;;;5095775;28;20785;-55
2021/03/18 03:57:53;;;;;;;5.20;4.70;;;4.30;99.90;;;;;;5095824;28;20446;-54
2021/03/18 04:00:19;;;;;;;7.00;5.10;;;4.30;99.90;;;;;;5095206;28;20400;-55
2021/03/18 04:02:46;;;;;;;4.23;3.83;;;4.40;99.90;;;;;;5095481;28;20892;-56
2021/03/18 04:05:13;;;;;;;4.87;4.40;;;4.50;99.90;;;;;;5095649;28;20927;-54
2021/03/18 04:07:40;;;;;;;7.53;4.97;;;4.70;99.90;;;;;;5094546;28;20481;-61
2021/03/18 04:10:08;;;;;;;4.40;3.83;;;4.80;99.90;;;;;;5094132;28;20900;-60
2021/03/18 04:12:37;;;;;;;5.97;3.90;;;4.50;99.90;;;;;;5094079;28;20411;-53
2021/03/18 04:15:09;;;;;;;4.70;4.30;;;4.40;99.90;;;;;;5093647;28;20440;-60
2021/03/18 04:17:40;;;;;;;5.90;3.77;;;4.40;99.90;;;;;;5094299;28;20884;-61
2021/03/18 04:20:09;;;;;;;4.00;3.60;;;4.50;99.90;;;;;;5094420;28;20428;-59
2021/03/18 04:22:36;;;;;;;4.60;4.20;;;4.70;99.90;;;;;;5094328;28;20522;-60
2021/03/18 04:25:05;;;;;;;7.20;5.00;;;4.70;99.90;;;;;;5093774;28;20419;-60
2021/03/18 04:27:31;;;;;;;5.13;3.93;;;4.80;99.90;;;;;;5093822;28;20399;-60
2021/03/18 04:29:58;;;;;;;4.90;4.40;;;4.90;99.90;;;;;;5075357;28;20403;-57
2021/03/18 04:32:25;;;;;;;4.93;4.20;;;4.70;99.90;;;;;;5094599;28;20414;-59
2021/03/18 04:34:52;;;;;;;5.70;4.00;;;4.80;99.90;;;;;;5093681;28;20947;-60
2021/03/18 04:37:18;;;;;;;7.83;4.97;;;4.90;99.90;;;;;;5093600;28;20403;-60
2021/03/18 04:39:45;;;;;;;5.87;3.67;;;4.90;99.90;;;;;;5093650;28;20407;-60
2021/03/18 04:42:12;;;;;;;6.57;4.10;;;4.90;99.90;;;;;;5093501;28;20505;-59
2021/03/18 04:44:40;;;;;;;6.73;3.77;;;5.00;99.90;;;;;;5092935;28;20451;-60
2021/03/18 04:47:06;;;;;;;7.57;4.23;;;4.90;99.90;;;;;;5093818;28;20406;-60
2021/03/18 04:49:32;;;;;;;4.37;3.97;;;4.80;99.90;;;;;;5093317;28;20407;-60
2021/03/18 04:51:58;;;;;;;10.30;4.90;;;4.80;99.90;;;;;;5093472;28;20165;-59
2021/03/18 04:54:24;;;;;;;10.73;4.57;;;4.70;99.90;;;;;;5092887;28;20632;-60
2021/03/18 04:56:51;;;;;;;5.67;3.70;;;4.70;99.90;;;;;;5093748;28;20884;-60
2021/03/18 04:59:18;;;;;;;4.87;3.93;;;4.70;99.90;;;;;;5093562;28;20530;-60
2021/03/18 05:01:50;;;;;;;7.40;3.93;;;4.70;99.90;;;;;;5093066;28;20450;-61
2021/03/18 05:04:17;;;;;;;6.33;4.23;;;4.80;99.90;;;;;;5093271;28;20847;-60
2021/03/18 05:06:47;;;;;;;5.17;4.67;;;4.80;99.90;;;;;;5093629;28;20452;-60
2021/03/18 05:09:14;;;;;;;5.10;4.40;;;4.80;99.90;;;;;;5093549;28;20399;-60
2021/03/18 05:11:40;;;;;;;4.50;4.10;;;4.90;99.90;;;;;;5093774;28;20995;-60
2021/03/18 05:14:08;;;;;;;4.83;4.40;;;4.90;99.90;;;;;;5093574;28;20438;-60
2021/03/18 05:16:35;;;;;;;8.03;4.50;;;4.80;99.90;;;;;;5093126;28;20399;-61
2021/03/18 05:19:04;;;;;;;5.00;4.00;;;4.80;99.90;;;;;;5092984;28;20434;-60
2021/03/18 05:21:31;;;;;;;6.33;4.00;;;4.80;99.90;;;;;;5093099;28;20451;-59
2021/03/18 05:23:58;;;;;;;6.23;4.10;;;4.80;99.90;;;;;;5093144;28;20400;-53
2021/03/18 05:26:24;;;;;;;4.40;3.93;;;4.80;99.90;;;;;;5093198;28;20414;-53
2021/03/18 05:28:49;;;;;;;6.50;4.23;;;4.80;99.90;;;;;;5093269;28;20407;-54
2021/03/18 05:31:15;;;;;;;6.30;4.10;;;4.80;99.90;;;;;;5092995;28;20169;-53
2021/03/18 05:33:41;;;;;;;7.70;4.40;;;4.80;99.90;;;;;;5092888;28;20180;-53
2021/03/18 05:36:07;;;;;;;5.90;4.53;;;4.70;99.90;;;;;;5075019;28;20221;-53
2021/03/18 05:38:32;;;;;;;5.47;4.40;;;4.70;99.90;;;;;;5093230;28;20193;-57
2021/03/18 05:40:58;;;;;;;7.40;4.50;;;4.70;99.90;;;;;;5093772;28;20453;-54
2021/03/18 05:43:25;;;;;;;4.87;4.47;;;4.70;99.90;;;;;;5093115;28;20161;-52
2021/03/18 05:45:51;;;;;;;7.03;4.57;;;4.60;99.90;;;;;;5078553;28;20475;-53
2021/03/18 05:48:19;;;;;;;4.80;4.40;;;4.60;99.90;;;;;;5052138;28;20413;-60
2021/03/18 05:50:46;;;;;;;7.57;4.80;;;4.60;99.90;;;;;;5080009;28;20919;-59
2021/03/18 05:53:12;;;;;;;5.57;5.07;;;4.50;99.90;;;;;;5092989;28;20399;-54
2021/03/18 05:55:38;;;;;;;5.67;4.93;;;4.40;99.90;;;;;;5093289;28;20465;-52
2021/03/18 05:58:04;;;;;;;7.37;4.57;;;4.50;99.90;;;;;;5092840;28;20399;-52
2021/03/18 06:00:33;;;;;;;6.30;4.17;;;4.50;99.90;;;;;;5092632;28;20452;-54
2021/03/18 06:02:59;;;;;;;4.63;3.80;;;4.50;99.90;;;;;;5085103;28;20462;-59
2021/03/18 06:05:25;;;;;;;6.40;5.00;;;4.50;99.90;;;;;;5072479;28;20507;-60
2021/03/18 06:07:50;;;;;;;4.50;4.10;;;4.50;99.90;;;;;;5058175;28;20488;-59
2021/03/18 06:10:21;;;;;;;7.87;4.57;;;4.40;99.90;;;;;;5076251;28;20165;-60
2021/03/18 06:12:49;;;;;;;5.27;4.43;;;4.50;99.90;;;;;;5076445;28;20534;-53
2021/03/18 06:15:16;;;;;;;5.17;4.67;;;4.50;99.90;;;;;;5086954;28;20439;-60
2021/03/18 06:17:42;;;;;;;5.37;4.60;;;4.50;99.90;;;;;;5096193;28;20407;-60
2021/03/18 06:20:11;;;;;;;6.67;4.73;;;4.50;99.90;;;;;;5078127;28;20931;-60
2021/03/18 06:22:40;;;;;;;8.17;6.50;;;4.50;99.90;;;;;;5096223;28;20450;-57
2021/03/18 06:25:20;;;;;;;27.63;24.80;;;4.60;99.90;;;;;;5096221;28;20478;-60
2021/03/18 06:27:46;;;;;;;6.30;5.80;;;4.70;99.90;;;;;;5096567;28;20448;-60
2021/03/18 06:30:12;;;;;;;5.10;4.70;;;4.70;99.90;;;;;;5096085;28;20403;-60
2021/03/18 06:32:38;;;;;;;6.43;5.53;;;4.90;99.90;;;;;;5096479;28;20404;-56
2021/03/18 06:35:05;;;;;;;7.67;4.70;;;5.00;99.90;;;;;;5096338;28;20865;-60
2021/03/18 06:37:38;;;;;;;5.80;5.20;;;5.10;99.90;;;;;;5096263;28;20403;-61
2021/03/18 06:40:17;;;;;;;17.07;15.67;;;5.10;99.90;;;;;;5095848;28;20407;-61
2021/03/18 06:42:54;;;;;;;9.73;8.67;;;4.90;99.90;;;;;;5096007;28;20980;-56
2021/03/18 06:45:21;;;;;;;7.73;6.20;;;5.20;99.90;;;;;;5095526;28;20447;-61
2021/03/18 06:47:51;;;;;;;7.03;5.80;;;5.20;99.90;;;;;;5095730;28;20414;-61
2021/03/18 06:50:23;;;;;;;5.67;5.17;;;5.20;99.90;;;;;;5095763;28;20442;-61
2021/03/18 06:52:49;;;;;;;6.70;4.97;;;5.10;99.90;;;;;;5095909;28;20738;-61
2021/03/18 06:55:27;;;;;;;9.43;4.87;;;5.00;99.90;;;;;;5095600;28;20792;-61
2021/03/18 06:58:15;;;;;;;6.83;5.77;;;4.90;99.90;;;;;;5095876;28;20430;-61
2021/03/18 07:00:42;;;;;;;10.07;7.30;;;4.90;99.90;;;;;;5095491;28;20833;-61
2021/03/18 07:03:11;;;;;;;9.40;6.10;;;4.90;99.90;;;;;;5095275;28;20434;-57
2021/03/18 07:05:39;;;;;;;7.50;5.80;;;5.00;99.90;;;;;;5095833;28;20946;-61
2021/03/18 07:08:05;;;;;;;10.20;6.10;;;5.10;99.90;;;;;;5095694;28;20825;-61
2021/03/18 07:10:33;;;;;;;8.93;5.27;;;5.20;99.90;;;;;;5095753;28;20436;-60
2021/03/18 07:13:29;;;;;;;6.80;5.83;;;5.20;99.90;;;;;;5096751;28;20407;-60
2021/03/18 07:15:57;;;;;;;6.27;5.67;;;5.20;99.90;;;;;;5095780;28;20428;-60
2021/03/18 07:18:23;;;;;;;11.37;6.43;;;5.30;99.90;;;;;;5078212;28;20908;-60
2021/03/18 07:21:13;;;;;;;11.90;7.40;;;5.20;99.90;;;;;;5097514;28;20446;-61
2021/03/18 07:23:47;;;;;;;7.13;6.23;;;5.20;99.90;;;;;;5096454;28;20372;-61
2021/03/18 07:26:21;;;;;;;7.83;5.97;;;5.50;99.90;;;;;;5095214;28;20427;-61
2021/03/18 07:28:51;;;;;;;7.30;5.87;;;5.50;99.90;;;;;;5095166;28;20400;-61
2021/03/18 07:31:19;;;;;;;6.63;5.10;;;5.50;99.90;;;;;;5094670;28;20433;-61
2021/03/18 07:33:48;;;;;;;6.30;5.63;;;5.60;99.90;;;;;;5094556;28;20412;-56
2021/03/18 07:36:15;;;;;;;8.60;6.07;;;5.60;99.90;;;;;;5094827;28;20476;-57
2021/03/18 07:38:42;;;;;;;9.47;6.03;;;5.50;99.90;;;;;;5095255;28;20472;-58
2021/03/18 07:41:16;;;;;;;9.20;7.07;;;5.50;99.90;;;;;;5095194;28;20447;-55
2021/03/18 07:43:46;;;;;;;7.80;5.90;;;5.60;99.90;;;;;;5095689;28;20797;-55
2021/03/18 07:46:16;;;;;;;6.83;5.60;;;5.60;99.90;;;;;;5094372;28;20580;-56
2021/03/18 07:48:45;;;;;;;8.17;6.67;;;5.80;99.90;;;;;;5094571;28;20979;-57
2021/03/18 07:51:12;;;;;;;7.00;6.30;;;5.90;99.90;;;;;;5080014;28;20405;-58
2021/03/18 07:53:39;;;;;;;7.50;6.37;;;5.90;99.90;;;;;;5054342;28;20535;-58
2021/03/18 07:56:12;;;;;;;7.07;6.37;;;6.10;99.90;;;;;;5054056;28;20429;-57
2021/03/18 07:58:46;;;;;;;8.70;6.23;;;6.10;99.90;;;;;;5036538;28;20473;-56
2021/03/18 08:01:29;;;;;;;7.97;7.00;;;6.30;99.90;;;;;;5053614;28;20431;-57
2021/03/18 08:04:00;;;;;;;8.93;6.53;;;6.50;99.90;;;;;;5054251;28;20174;-56
2021/03/18 08:06:41;;;;;;;6.87;6.20;;;6.30;99.90;;;;;;5036309;28;20439;-62
2021/03/18 08:09:11;;;;;;;6.73;5.87;;;6.20;99.90;;;;;;5054194;28;20400;-60
2021/03/18 08:11:38;;;;;;;9.50;6.97;;;6.00;99.90;;;;;;5053921;28;20439;-61
2021/03/18 08:14:10;;;;;;;8.47;6.80;;;6.00;99.90;;;;;;5073253;28;20416;-57
2021/03/18 08:16:36;;;;;;;9.60;6.73;;;6.00;99.90;;;;;;5093851;28;20415;-57
2021/03/18 08:19:04;;;;;;;9.13;6.73;;;6.20;99.90;;;;;;5093804;28;20409;-53
2021/03/18 08:21:39;;;;;;;7.67;6.83;;;6.40;99.90;;;;;;5094895;28;20459;-58
2021/03/18 08:24:07;;;;;;;10.47;7.30;;;6.40;99.90;;;;;;5094435;28;20384;-64
2021/03/18 08:27:05;;;;;;;8.40;7.60;;;6.20;99.90;;;;;;5094053;28;20402;-60
2021/03/18 08:29:40;;;;;;;8.30;6.43;;;6.20;99.90;;;;;;5090272;28;20499;-62
2021/03/18 08:32:28;;;;;;;9.00;6.37;;;6.20;99.90;;;;;;5093581;28;20944;-62
2021/03/18 08:34:56;;;;;;;9.17;7.90;;;6.50;99.90;;;;;;5093666;28;20411;-61
2021/03/18 08:37:42;;;;;;;7.70;6.50;;;6.40;99.90;;;;;;5087377;28;20426;-61
2021/03/18 08:40:30;;;;;;;7.87;6.13;;;6.30;99.90;;;;;;5066482;28;20422;-61
2021/03/18 08:43:06;;;;;;;9.00;7.73;;;6.40;99.90;;;;;;5075051;28;20389;-58
2021/03/18 08:45:32;;;;;;;8.90;7.00;;;6.60;99.90;;;;;;5107077;22;21012;-65
2021/03/18 08:48:08;;;;;;;8.43;7.23;;;6.70;99.90;;;;;;5086359;28;20411;-64
2021/03/18 08:50:34;;;;;;;8.03;7.23;;;6.70;99.90;;;;;;5086553;28;20190;-64
2021/03/18 08:53:01;;;;;;;8.13;7.23;;;6.30;99.90;;;;;;5092596;28;20820;-65
2021/03/18 08:55:38;;;;;;;11.60;6.80;;;6.60;99.90;;;;;;5051326;28;20228;-63
2021/03/18 08:58:08;;;;;;;9.60;8.10;;;6.30;99.90;;;;;;5053199;28;20409;-64
2021/03/18 09:00:35;;;;;;;8.43;7.55;;;5.90;99.90;;;;;;5052424;28;20415;-65
2021/03/18 09:03:02;;;;;;;10.07;8.20;;;5.90;99.90;;;;;;5053346;28;20199;-65
2021/03/18 09:05:28;;;;;;;7.57;6.80;;;6.20;99.90;;;;;;5055152;28;20802;-65
2021/03/18 09:07:59;;;;;;;10.50;8.10;;;6.50;99.90;;;;;;5072863;28;20405;-65
2021/03/18 09:10:32;;;;;;;8.10;7.00;;;6.90;99.90;;;;;;5073128;28;20468;-65
2021/03/18 09:13:20;;;;;;;10.60;8.20;;;7.10;99.90;;;;;;5072868;28;20798;-65
2021/03/18 09:15:49;;;;;;;10.20;7.97;;;7.10;99.90;;;;;;5083128;28;20909;-65
2021/03/18 09:18:17;;;;;;;8.83;7.77;;;7.10;99.90;;;;;;5093031;28;20407;-65
2021/03/18 09:20:47;;;;;;;7.90;6.90;;;7.00;99.90;;;;;;5092292;28;20451;-65
2021/03/18 09:23:18;;;;;;;9.37;7.57;;;7.30;99.90;;;;;;5093262;28;20392;-62
2021/03/18 09:25:46;;;;;;;8.13;7.10;;;7.20;99.90;;;;;;5093225;28;20419;-63
2021/03/18 09:28:12;;;;;;;8.73;7.80;;;7.10;99.90;;;;;;5092920;28;20527;-63
2021/03/18 09:30:54;;;;;;;8.13;6.37;;;7.20;99.90;;;;;;5092682;28;20431;-63
2021/03/18 09:33:28;;;;;;;9.50;7.27;;;7.10;99.90;;;;;;5093234;28;20392;-63
2021/03/18 09:35:56;;;;;;;9.40;7.10;;;6.80;99.90;;;;;;5092549;28;20427;-64
2021/03/18 09:38:32;;;;;;;8.03;6.20;;;6.90;99.90;;;;;;5092837;28;20446;-64
2021/03/18 09:41:00;;;;;;;10.50;7.30;;;6.90;99.90;;;;;;5095235;28;20470;-66
2021/03/18 09:43:30;;;;;;;8.90;7.50;;;6.90;99.90;;;;;;5082164;28;20404;-63
2021/03/18 09:46:05;;;;;;;10.00;6.93;;;6.80;99.90;;;;;;5076125;28;20448;-65
2021/03/18 09:48:37;;;;;;;12.80;7.60;;;7.20;99.90;;;;;;5076636;28;20380;-62
2021/03/18 09:51:06;;;;;;;9.43;7.43;;;7.60;99.90;;;;;;5084160;28;20423;-63
2021/03/18 09:53:32;;;;;;;12.37;7.07;;;7.60;99.90;;;;;;5096861;28;20416;-65
2021/03/18 09:56:07;;;;;;;9.63;6.17;;;7.60;99.90;;;;;;5082863;28;20432;-63
2021/03/18 09:58:33;;;;;;;13.00;6.60;;;6.90;99.90;;;;;;5076093;28;20717;-65
2021/03/18 10:01:08;;;;;;;12.20;9.33;;;7.00;99.90;;;;;;5075536;28;20749;-63
2021/03/18 10:03:33;;;;;;;11.93;7.97;;;7.10;99.90;;;;;;5076024;28;20392;-63
2021/03/18 10:06:10;;;;;;;7.87;6.87;;;7.20;99.90;;;;;;5075765;28;20420;-63
2021/03/18 10:08:36;;;;;;;9.63;6.67;;;7.30;99.90;;;;;;5076421;28;20181;-63
2021/03/18 10:11:12;;;;;;;11.87;6.30;;;7.50;99.90;;;;;;5075935;28;20792;-64
2021/03/18 10:13:38;;;;;;;10.37;6.10;;;7.90;99.90;;;;;;5076248;28;20151;-64
2021/03/18 10:16:04;;;;;;;6.10;4.83;;;8.50;99.60;;;;;;5075806;28;20517;-64
2021/03/18 10:18:30;;;;;;;13.03;6.07;;;8.60;99.10;;;;;;5075894;28;20560;-64
2021/03/18 10:20:55;;;;;;;10.73;6.00;;;9.00;98.70;;;;;;5082674;28;20204;-64
2021/03/18 10:23:25;;;;;;;7.20;6.50;;;9.00;98.20;;;;;;5096428;28;20356;-63
2021/03/18 10:25:51;;;;;;;8.40;6.00;;;8.90;98.60;;;;;;5096202;28;20661;-64
2021/03/18 10:28:18;;;;;;;7.43;6.63;;;8.60;99.20;;;;;;5096194;28;20419;-65
2021/03/18 10:30:46;;;;;;;6.23;5.63;;;8.60;99.20;;;;;;5095752;28;20174;-65
2021/03/18 10:33:18;;;;;;;7.70;6.30;;;8.30;99.60;;;;;;5095781;28;20407;-64
2021/03/18 10:36:04;;;;;;;5.80;5.27;;;7.90;99.90;;;;;;5095675;28;20474;-65
2021/03/18 10:38:39;;;;;;;7.10;6.40;;;7.50;99.70;;;;;;5095569;28;20465;-64
2021/03/18 10:41:13;;;;;;;5.30;4.80;;;7.50;99.90;;;;;;5077432;28;21020;-64
2021/03/18 10:43:42;;;;;;;5.63;5.03;;;7.10;99.90;;;;;;5079410;28;20390;-64
2021/03/18 10:46:10;;;;;;;8.20;6.40;;;7.20;99.90;;;;;;5074940;28;20440;-64
2021/03/18 10:48:38;;;;;;;6.43;5.70;;;7.20;99.90;;;;;;5074986;28;20448;-64
2021/03/18 10:51:09;;;;;;;8.37;5.60;;;7.30;99.90;;;;;;5083043;28;20419;-64
2021/03/18 10:53:37;;;;;;;7.07;5.50;;;7.20;99.90;;;;;;5095260;28;20486;-64
2021/03/18 10:56:17;;;;;;;7.43;5.97;;;7.20;99.90;;;;;;5077230;28;20487;-64
2021/03/18 10:58:45;;;;;;;6.80;5.43;;;7.60;99.90;;;;;;5095313;28;20387;-64
2021/03/18 11:01:13;;;;;;;6.40;5.00;;;7.70;99.90;;;;;;5094917;28;20855;-65
2021/03/18 11:03:41;;;;;;;7.00;5.47;;;7.90;99.90;;;;;;5095423;28;20405;-64
2021/03/18 11:06:16;;;;;;;5.57;4.87;;;8.20;99.60;;;;;;5095137;28;20786;-64
2021/03/18 11:08:44;;;;;;;11.70;6.27;;;8.30;98.60;;;;;;5095128;28;20400;-64
2021/03/18 11:11:18;;;;;;;11.20;5.97;;;8.30;99.40;;;;;;5095303;28;20419;-64
2021/03/18 11:13:45;;;;;;;6.00;4.73;;;8.30;99.40;;;;;;5095187;28;20411;-64
2021/03/18 11:16:21;;;;;;;6.10;4.80;;;8.00;98.80;;;;;;5094901;28;20931;-64
2021/03/18 11:18:49;;;;;;;7.40;6.40;;;8.10;99.60;;;;;;5094850;28;20398;-64
2021/03/18 11:21:17;;;;;;;6.30;5.57;;;8.20;99.80;;;;;;5094769;28;20507;-64
2021/03/18 11:23:43;;;;;;;6.33;5.23;;;8.50;98.30;;;;;;5094768;28;20442;-64
2021/03/18 11:26:09;;;;;;;6.53;4.73;;;8.80;98.30;;;;;;5094872;28;20418;-64
2021/03/18 11:28:35;;;;;;;5.97;5.37;;;8.50;97.40;;;;;;5095215;28;20400;-64
2021/03/18 11:31:13;;;;;;;8.10;5.50;;;8.20;97.80;;;;;;5095020;28;20176;-64
2021/03/18 11:33:39;;;;;;;8.07;5.47;;;8.20;97.10;;;;;;5094745;28;20764;-64
2021/03/18 11:36:06;;;;;;;8.47;5.37;;;8.50;96.40;;;;;;5094536;28;20433;-65
2021/03/18 11:38:33;;;;;;;8.23;5.00;;;8.90;96.40;;;;;;5094865;28;20178;-65
2021/03/18 11:41:02;;;;;;;5.30;4.33;;;9.10;95.70;;;;;;5081851;28;20463;-65
2021/03/18 11:43:28;;;;;;;8.90;4.73;;;9.50;95.60;;;;;;5074217;28;20835;-64
2021/03/18 11:45:55;;;;;;;4.43;3.93;;;9.50;93.40;;;;;;5073954;28;20459;-65
2021/03/18 11:48:21;;;;;;;4.87;4.40;;;9.00;92.00;;;;;;5074045;28;20169;-64
2021/03/18 11:50:46;;;;;;;7.00;5.30;;;9.10;92.90;;;;;;5079812;28;20441;-64
2021/03/18 11:53:12;;;;;;;6.73;4.80;;;9.00;93.20;;;;;;5094480;28;20256;-64
2021/03/18 11:55:41;;;;;;;5.73;4.80;;;8.80;93.60;;;;;;5094565;28;20238;-65
2021/03/18 11:58:07;;;;;;;5.03;4.53;;;9.10;93.30;;;;;;5093333;28;20413;-65
2021/03/18 12:00:38;;;;;;;6.83;5.60;;;10.10;91.30;;;;;;5075091;28;20893;-65
2021/03/18 12:03:09;;;;;;;14.17;5.37;;;10.50;90.20;;;;;;5092982;28;20766;-65
2021/03/18 12:05:36;;;;;;;8.53;6.10;;;11.00;90.50;;;;;;5093802;28;20966;-64
2021/03/18 12:08:03;;;;;;;5.93;5.30;;;11.00;91.50;;;;;;5094009;28;20412;-64
2021/03/18 12:10:29;;;;;;;8.63;4.87;;;10.50;92.30;;;;;;5094402;28;20741;-64
2021/03/18 12:12:54;;;;;;;5.30;4.80;;;10.00;93.50;;;;;;5094085;28;20412;-64
2021/03/18 12:15:20;;;;;;;10.17;6.20;;;9.20;94.10;;;;;;5075661;28;20447;-65
2021/03/18 12:17:46;;;;;;;7.77;5.27;;;8.80;95.70;;;;;;5094123;28;20185;-65
2021/03/18 12:20:16;;;;;;;7.50;5.53;;;8.60;95.50;;;;;;5094150;28;20261;-65
2021/03/18 12:22:45;;;;;;;6.70;4.80;;;9.10;95.40;;;;;;5093954;28;20451;-65
2021/03/18 12:25:13;;;;;;;6.23;4.93;;;10.10;93.70;;;;;;5094450;28;20469;-65
2021/03/18 12:27:38;;;;;;;5.83;4.57;;;9.70;92.80;;;;;;5067188;28;20786;-66
2021/03/18 12:30:07;;;;;;;5.60;5.00;;;9.90;93.70;;;;;;5065838;28;20418;-65
2021/03/18 12:32:33;;;;;;;8.80;5.27;;;10.30;93.60;;;;;;5073200;28;20231;-65
2021/03/18 12:34:59;;;;;;;6.10;4.87;;;10.40;92.50;;;;;;5073144;28;20897;-64
2021/03/18 12:37:24;;;;;;;7.70;5.33;;;10.40;93.00;;;;;;5055311;28;20170;-64
2021/03/18 12:39:50;;;;;;;7.30;5.60;;;10.40;92.50;;;;;;5073163;28;20689;-64
2021/03/18 12:42:16;;;;;;;6.03;5.47;;;10.20;94.40;;;;;;5065759;28;20209;-65
2021/03/18 12:44:42;;;;;;;5.83;5.17;;;10.00;95.50;;;;;;5072631;28;20182;-65
2021/03/18 12:47:08;;;;;;;5.73;5.23;;;9.30;96.90;;;;;;5073109;28;20240;-64
2021/03/18 12:49:35;;;;;;;6.57;5.20;;;8.90;98.00;;;;;;5071940;28;20833;-63
2021/03/18 12:52:01;;;;;;;7.30;5.37;;;9.00;98.20;;;;;;5089061;28;20420;-63
2021/03/18 12:54:27;;;;;;;9.10;5.53;;;9.20;97.60;;;;;;5093447;28;20907;-64
2021/03/18 12:56:53;;;;;;;6.30;5.63;;;9.30;97.20;;;;;;5094409;28;20490;-63
2021/03/18 12:59:18;;;;;;;4.93;4.53;;;9.60;97.80;;;;;;5093628;28;20172;-63
2021/03/18 13:01:44;;;;;;;5.43;4.93;;;9.70;97.00;;;;;;5093074;28;20200;-63
2021/03/18 13:04:12;;;;;;;6.07;5.47;;;10.70;94.90;;;;;;5093223;28;20158;-64
2021/03/18 13:06:38;;;;;;;5.90;5.30;;;;;;;;;;5093468;28;20226;-64